sensor_id;sensor_type;location;lat;lon;timestamp;temperature;humidity
21622;DHT22;10973;46.706;12.340;2023-04-03T00:01:14;2.40;99.90
21622;DHT22;10973;46.706;12.340;2023-04-03T00:03:42;2.40;99.90
21622;DHT22;10973;46.706;12.340;2023-04-03T00:06:10;2.40;99.90
21622;DHT22;10973;46.706;12.340;2023-04-03T00:08:39;2.40;99.90
21622;DHT22;10973;46.706;12.340;2023-04-03T00:11:07;2.40;99.90
21622;DHT22;10973;46.706;12.340;2023-04-03T00:13:36;2.40;99.90
21622;DHT22;10973;46.706;12.340;2023-04-03T00:16:05;2.40;99.90
21622;DHT22;10973;46.706;12.340;2023-04-03T00:18:34;2.50;99.90
21622;DHT22;10973;46.706;12.340;2023-04-03T00:21:03;2.50;99.90
21622;DHT22;10973;46.706;12.340;2023-04-03T00:23:31;2.40;99.90
21622;DHT22;10973;46.706;12.340;2023-04-03T00:26:01;2.50;99.90
21622;DHT22;10973;46.706;12.340;2023-04-03T00:28:29;2.50;99.90
21622;DHT22;10973;46.706;12.340;2023-04-03T00:30:56;2.50;99.90
21622;DHT22;10973;46.706;12.340;2023-04-03T00:33:24;2.50;99.90
21622;DHT22;10973;46.706;12.340;2023-04-03T00:35:51;2.50;99.90
21622;DHT22;10973;46.706;12.340;2023-04-03T00:38:19;2.40;99.90
21622;DHT22;10973;46.706;12.340;2023-04-03T00:40:48;2.40;99.90
21622;DHT22;10973;46.706;12.340;2023-04-03T00:43:25;2.60;99.90
21622;DHT22;10973;46.706;12.340;2023-04-03T00:45:56;2.50;99.90
21622;DHT22;10973;46.706;12.340;2023-04-03T00:48:34;2.50;99.90
21622;DHT22;10973;46.706;12.340;2023-04-03T00:51:08;2.40;99.90
21622;DHT22;10973;46.706;12.340;2023-04-03T00:53:46;2.50;99.90
21622;DHT22;10973;46.706;12.340;2023-04-03T00:56:19;2.50;99.90
21622;DHT22;10973;46.706;12.340;2023-04-03T00:58:58;2.50;99.90
21622;DHT22;10973;46.706;12.340;2023-04-03T01:01:29;2.60;99.90
21622;DHT22;10973;46.706;12.340;2023-04-03T01:04:01;2.50;99.90
21622;DHT22;10973;46.706;12.340;2023-04-03T01:06:34;2.40;99.90
21622;DHT22;10973;46.706;12.340;2023-04-03T01:09:05;2.40;99.90
21622;DHT22;10973;46.706;12.340;2023-04-03T01:11:32;2.30;99.90
21622;DHT22;10973;46.706;12.340;2023-04-03T01:13:59;2.30;99.90
21622;DHT22;10973;46.706;12.340;2023-04-03T01:16:27;2.30;99.90
21622;DHT22;10973;46.706;12.340;2023-04-03T01:18:55;2.40;99.90
21622;DHT22;10973;46.706;12.340;2023-04-03T01:24:34;2.20;99.90
21622;DHT22;10973;46.706;12.340;2023-04-03T01:27:05;2.20;99.90
21622;DHT22;10973;46.706;12.340;2023-04-03T01:29:36;2.20;99.90
21622;DHT22;10973;46.706;12.340;2023-04-03T01:32:04;2.10;99.90
21622;DHT22;10973;46.706;12.340;2023-04-03T01:34:32;1.90;99.90
21622;DHT22;10973;46.706;12.340;2023-04-03T01:36:59;1.90;99.90
21622;DHT22;10973;46.706;12.340;2023-04-03T01:41:54;1.90;99.90
21622;DHT22;10973;46.706;12.340;2023-04-03T01:44:22;2.00;99.90
21622;DHT22;10973;46.706;12.340;2023-04-03T01:46:49;1.90;99.90
21622;DHT22;10973;46.706;12.340;2023-04-03T01:49:16;1.80;99.90
21622;DHT22;10973;46.706;12.340;2023-04-03T01:51:44;1.80;99.90
21622;DHT22;10973;46.706;12.340;2023-04-03T01:54:11;1.80;99.90
21622;DHT22;10973;46.706;12.340;2023-04-03T01:56:39;1.80;99.90
21622;DHT22;10973;46.706;12.340;2023-04-03T01:59:06;1.80;99.90
21622;DHT22;10973;46.706;12.340;2023-04-03T02:01:33;1.70;99.90
21622;DHT22;10973;46.706;12.340;2023-04-03T02:04:00;1.80;99.90
21622;DHT22;10973;46.706;12.340;2023-04-03T02:06:28;1.70;99.90
21622;DHT22;10973;46.706;12.340;2023-04-03T02:08:55;1.70;99.90
21622;DHT22;10973;46.706;12.340;2023-04-03T02:11:22;1.60;99.90
21622;DHT22;10973;46.706;12.340;2023-04-03T02:16:17;1.50;99.90
21622;DHT22;10973;46.706;12.340;2023-04-03T02:18:45;1.50;99.90
21622;DHT22;10973;46.706;12.340;2023-04-03T02:21:12;1.50;99.90
21622;DHT22;10973;46.706;12.340;2023-04-03T02:23:39;1.40;99.90
21622;DHT22;10973;46.706;12.340;2023-04-03T02:26:09;1.30;99.90
21622;DHT22;10973;46.706;12.340;2023-04-03T02:28:38;1.40;99.90
21622;DHT22;10973;46.706;12.340;2023-04-03T02:31:06;1.50;99.90
21622;DHT22;10973;46.706;12.340;2023-04-03T02:33:35;1.40;99.90
21622;DHT22;10973;46.706;12.340;2023-04-03T02:36:07;1.20;99.90
21622;DHT22;10973;46.706;12.340;2023-04-03T02:38:35;1.20;99.90
21622;DHT22;10973;46.706;12.340;2023-04-03T02:41:08;1.20;99.90
21622;DHT22;10973;46.706;12.340;2023-04-03T02:43:37;1.20;99.90
21622;DHT22;10973;46.706;12.340;2023-04-03T02:46:06;1.20;99.90
21622;DHT22;10973;46.706;12.340;2023-04-03T02:48:34;1.20;99.90
21622;DHT22;10973;46.706;12.340;2023-04-03T02:51:01;1.40;99.90
21622;DHT22;10973;46.706;12.340;2023-04-03T02:53:28;1.30;99.90
21622;DHT22;10973;46.706;12.340;2023-04-03T02:55:58;1.20;99.90
21622;DHT22;10973;46.706;12.340;2023-04-03T02:58:26;1.20;99.90
21622;DHT22;10973;46.706;12.340;2023-04-03T03:00:53;1.20;99.90
21622;DHT22;10973;46.706;12.340;2023-04-03T03:03:21;1.20;99.90
21622;DHT22;10973;46.706;12.340;2023-04-03T03:05:48;1.10;99.90
21622;DHT22;10973;46.706;12.340;2023-04-03T03:08:15;1.10;99.90
21622;DHT22;10973;46.706;12.340;2023-04-03T03:10:42;1.10;99.90
21622;DHT22;10973;46.706;12.340;2023-04-03T03:13:11;1.00;99.90
21622;DHT22;10973;46.706;12.340;2023-04-03T03:15:38;1.00;99.90
21622;DHT22;10973;46.706;12.340;2023-04-03T03:18:05;0.90;99.90
21622;DHT22;10973;46.706;12.340;2023-04-03T03:23:00;0.90;99.90
21622;DHT22;10973;46.706;12.340;2023-04-03T03:25:28;0.80;99.90
21622;DHT22;10973;46.706;12.340;2023-04-03T03:27:55;0.80;99.90
21622;DHT22;10973;46.706;12.340;2023-04-03T03:30:22;0.80;99.90
21622;DHT22;10973;46.706;12.340;2023-04-03T03:32:49;0.80;99.90
21622;DHT22;10973;46.706;12.340;2023-04-03T03:35:16;0.80;99.90
21622;DHT22;10973;46.706;12.340;2023-04-03T03:37:44;0.80;99.90
21622;DHT22;10973;46.706;12.340;2023-04-03T03:40:11;0.70;99.90
21622;DHT22;10973;46.706;12.340;2023-04-03T03:42:39;0.70;99.90
21622;DHT22;10973;46.706;12.340;2023-04-03T03:45:06;0.70;99.90
21622;DHT22;10973;46.706;12.340;2023-04-03T03:47:34;0.70;99.90
21622;DHT22;10973;46.706;12.340;2023-04-03T03:50:02;0.60;99.90
21622;DHT22;10973;46.706;12.340;2023-04-03T03:52:30;0.60;99.90
21622;DHT22;10973;46.706;12.340;2023-04-03T03:54:57;0.70;99.90
21622;DHT22;10973;46.706;12.340;2023-04-03T03:57:24;0.60;99.90
21622;DHT22;10973;46.706;12.340;2023-04-03T03:59:52;0.60;99.90
21622;DHT22;10973;46.706;12.340;2023-04-03T04:02:20;0.50;99.90
21622;DHT22;10973;46.706;12.340;2023-04-03T04:04:49;0.50;99.90
21622;DHT22;10973;46.706;12.340;2023-04-03T04:07:16;0.50;99.90
21622;DHT22;10973;46.706;12.340;2023-04-03T04:09:43;0.40;99.90
21622;DHT22;10973;46.706;12.340;2023-04-03T04:12:11;0.50;99.90
21622;DHT22;10973;46.706;12.340;2023-04-03T04:14:38;0.40;99.90
21622;DHT22;10973;46.706;12.340;2023-04-03T04:17:05;0.40;99.90
21622;DHT22;10973;46.706;12.340;2023-04-03T04:19:33;0.40;99.90
21622;DHT22;10973;46.706;12.340;2023-04-03T04:22:00;0.50;99.90
21622;DHT22;10973;46.706;12.340;2023-04-03T04:24:27;0.50;99.90
21622;DHT22;10973;46.706;12.340;2023-04-03T04:26:54;0.50;99.90
21622;DHT22;10973;46.706;12.340;2023-04-03T04:29:22;0.50;99.90
21622;DHT22;10973;46.706;12.340;2023-04-03T04:31:49;0.50;99.90
21622;DHT22;10973;46.706;12.340;2023-04-03T04:34:17;0.40;99.90
21622;DHT22;10973;46.706;12.340;2023-04-03T04:36:44;0.40;99.90
21622;DHT22;10973;46.706;12.340;2023-04-03T04:39:12;0.50;99.90
21622;DHT22;10973;46.706;12.340;2023-04-03T04:41:39;0.40;99.90
21622;DHT22;10973;46.706;12.340;2023-04-03T04:44:06;0.40;99.90
21622;DHT22;10973;46.706;12.340;2023-04-03T04:46:33;0.40;99.90
21622;DHT22;10973;46.706;12.340;2023-04-03T04:49:01;0.40;99.90
21622;DHT22;10973;46.706;12.340;2023-04-03T04:51:28;0.30;99.90
21622;DHT22;10973;46.706;12.340;2023-04-03T04:54:07;0.40;99.90
21622;DHT22;10973;46.706;12.340;2023-04-03T04:56:34;0.30;99.90
21622;DHT22;10973;46.706;12.340;2023-04-03T04:59:01;0.20;99.90
21622;DHT22;10973;46.706;12.340;2023-04-03T05:01:28;0.10;99.90
21622;DHT22;10973;46.706;12.340;2023-04-03T05:03:56;0.20;99.90
21622;DHT22;10973;46.706;12.340;2023-04-03T05:06:23;0.30;99.90
21622;DHT22;10973;46.706;12.340;2023-04-03T05:08:50;0.40;99.90
21622;DHT22;10973;46.706;12.340;2023-04-03T05:11:18;0.50;99.90
21622;DHT22;10973;46.706;12.340;2023-04-03T05:13:45;0.50;99.90
21622;DHT22;10973;46.706;12.340;2023-04-03T05:16:12;0.50;99.90
21622;DHT22;10973;46.706;12.340;2023-04-03T05:18:40;0.50;99.90
21622;DHT22;10973;46.706;12.340;2023-04-03T05:21:07;0.40;99.90
21622;DHT22;10973;46.706;12.340;2023-04-03T05:23:34;0.40;99.90
21622;DHT22;10973;46.706;12.340;2023-04-03T05:26:01;0.30;99.90
21622;DHT22;10973;46.706;12.340;2023-04-03T05:28:29;0.30;99.90
21622;DHT22;10973;46.706;12.340;2023-04-03T05:30:58;0.30;99.90
21622;DHT22;10973;46.706;12.340;2023-04-03T05:33:25;0.40;99.90
21622;DHT22;10973;46.706;12.340;2023-04-03T05:35:54;0.40;99.90
21622;DHT22;10973;46.706;12.340;2023-04-03T05:38:21;0.40;99.90
21622;DHT22;10973;46.706;12.340;2023-04-03T05:40:49;0.40;99.90
21622;DHT22;10973;46.706;12.340;2023-04-03T05:43:16;0.40;99.90
21622;DHT22;10973;46.706;12.340;2023-04-03T05:45:43;0.70;99.90
21622;DHT22;10973;46.706;12.340;2023-04-03T05:48:12;0.50;99.90
21622;DHT22;10973;46.706;12.340;2023-04-03T05:50:40;0.60;99.90
21622;DHT22;10973;46.706;12.340;2023-04-03T05:53:09;0.40;99.90
21622;DHT22;10973;46.706;12.340;2023-04-03T05:55:45;0.30;99.90
21622;DHT22;10973;46.706;12.340;2023-04-03T05:58:13;0.30;99.90
21622;DHT22;10973;46.706;12.340;2023-04-03T06:00:40;0.30;99.90
21622;DHT22;10973;46.706;12.340;2023-04-03T06:03:07;0.40;99.90
21622;DHT22;10973;46.706;12.340;2023-04-03T06:05:34;0.30;99.90
21622;DHT22;10973;46.706;12.340;2023-04-03T06:08:03;0.30;99.90
21622;DHT22;10973;46.706;12.340;2023-04-03T06:10:30;0.40;99.90
21622;DHT22;10973;46.706;12.340;2023-04-03T06:12:58;0.40;99.90
21622;DHT22;10973;46.706;12.340;2023-04-03T06:15:25;0.50;99.90
21622;DHT22;10973;46.706;12.340;2023-04-03T06:17:52;0.70;99.90
21622;DHT22;10973;46.706;12.340;2023-04-03T06:20:20;0.70;99.90
21622;DHT22;10973;46.706;12.340;2023-04-03T06:22:47;0.80;99.90
21622;DHT22;10973;46.706;12.340;2023-04-03T06:25:15;1.00;99.90
21622;DHT22;10973;46.706;12.340;2023-04-03T06:27:42;1.10;99.90
21622;DHT22;10973;46.706;12.340;2023-04-03T06:30:09;1.30;99.90
21622;DHT22;10973;46.706;12.340;2023-04-03T06:32:37;1.40;99.90
21622;DHT22;10973;46.706;12.340;2023-04-03T06:35:05;1.50;99.90
21622;DHT22;10973;46.706;12.340;2023-04-03T06:37:33;1.70;99.90
21622;DHT22;10973;46.706;12.340;2023-04-03T06:40:01;1.80;99.90
21622;DHT22;10973;46.706;12.340;2023-04-03T06:42:29;1.80;99.90
21622;DHT22;10973;46.706;12.340;2023-04-03T06:44:56;2.00;99.90
21622;DHT22;10973;46.706;12.340;2023-04-03T06:47:23;2.10;99.90
21622;DHT22;10973;46.706;12.340;2023-04-03T06:49:51;2.20;99.90
21622;DHT22;10973;46.706;12.340;2023-04-03T06:52:18;2.30;99.90
21622;DHT22;10973;46.706;12.340;2023-04-03T06:54:45;2.40;99.90
21622;DHT22;10973;46.706;12.340;2023-04-03T06:57:12;2.50;99.90
21622;DHT22;10973;46.706;12.340;2023-04-03T06:59:40;2.60;99.90
21622;DHT22;10973;46.706;12.340;2023-04-03T07:02:09;2.60;99.90
21622;DHT22;10973;46.706;12.340;2023-04-03T07:04:38;2.70;99.90
21622;DHT22;10973;46.706;12.340;2023-04-03T07:07:06;2.90;99.90
21622;DHT22;10973;46.706;12.340;2023-04-03T07:09:33;3.00;99.90
21622;DHT22;10973;46.706;12.340;2023-04-03T07:12:01;3.00;99.90
21622;DHT22;10973;46.706;12.340;2023-04-03T07:14:28;3.20;99.90
21622;DHT22;10973;46.706;12.340;2023-04-03T07:16:55;3.30;99.50
21622;DHT22;10973;46.706;12.340;2023-04-03T07:19:22;3.40;98.60
21622;DHT22;10973;46.706;12.340;2023-04-03T07:21:50;3.40;98.80
21622;DHT22;10973;46.706;12.340;2023-04-03T07:26:49;3.60;95.90
21622;DHT22;10973;46.706;12.340;2023-04-03T07:29:17;3.60;96.20
21622;DHT22;10973;46.706;12.340;2023-04-03T07:31:45;3.70;95.40
21622;DHT22;10973;46.706;12.340;2023-04-03T07:34:12;3.80;95.10
21622;DHT22;10973;46.706;12.340;2023-04-03T07:36:39;3.80;92.40
21622;DHT22;10973;46.706;12.340;2023-04-03T07:39:07;3.90;92.00
21622;DHT22;10973;46.706;12.340;2023-04-03T07:41:34;4.00;90.40
21622;DHT22;10973;46.706;12.340;2023-04-03T07:44:01;4.00;90.20
21622;DHT22;10973;46.706;12.340;2023-04-03T07:46:29;4.10;87.30
21622;DHT22;10973;46.706;12.340;2023-04-03T07:48:56;4.10;86.00
21622;DHT22;10973;46.706;12.340;2023-04-03T07:51:24;4.10;84.30
21622;DHT22;10973;46.706;12.340;2023-04-03T07:53:52;4.10;84.60
21622;DHT22;10973;46.706;12.340;2023-04-03T07:56:19;4.20;82.90
21622;DHT22;10973;46.706;12.340;2023-04-03T07:58:46;4.20;79.80
21622;DHT22;10973;46.706;12.340;2023-04-03T08:01:13;4.30;80.20
21622;DHT22;10973;46.706;12.340;2023-04-03T08:03:41;4.40;78.30
21622;DHT22;10973;46.706;12.340;2023-04-03T08:06:09;4.40;77.20
21622;DHT22;10973;46.706;12.340;2023-04-03T08:08:42;4.50;77.50
21622;DHT22;10973;46.706;12.340;2023-04-03T08:11:10;4.50;75.80
21622;DHT22;10973;46.706;12.340;2023-04-03T08:13:38;4.60;75.90
21622;DHT22;10973;46.706;12.340;2023-04-03T08:16:17;4.70;75.20
21622;DHT22;10973;46.706;12.340;2023-04-03T08:18:46;4.70;75.20
21622;DHT22;10973;46.706;12.340;2023-04-03T08:21:14;4.80;73.80
21622;DHT22;10973;46.706;12.340;2023-04-03T08:23:42;4.80;75.40
21622;DHT22;10973;46.706;12.340;2023-04-03T08:26:13;4.90;75.80
21622;DHT22;10973;46.706;12.340;2023-04-03T08:28:42;5.00;74.80
21622;DHT22;10973;46.706;12.340;2023-04-03T08:31:14;5.00;73.00
21622;DHT22;10973;46.706;12.340;2023-04-03T08:33:43;5.10;72.10
21622;DHT22;10973;46.706;12.340;2023-04-03T08:36:23;5.10;73.90
21622;DHT22;10973;46.706;12.340;2023-04-03T08:38:54;5.20;70.30
21622;DHT22;10973;46.706;12.340;2023-04-03T08:41:38;5.20;70.30
21622;DHT22;10973;46.706;12.340;2023-04-03T08:47:45;5.30;67.80
21622;DHT22;10973;46.706;12.340;2023-04-03T08:50:30;5.40;66.80
21622;DHT22;10973;46.706;12.340;2023-04-03T08:53:02;5.60;68.20
21622;DHT22;10973;46.706;12.340;2023-04-03T08:55:43;5.60;65.40
21622;DHT22;10973;46.706;12.340;2023-04-03T08:58:19;5.60;65.80
21622;DHT22;10973;46.706;12.340;2023-04-03T09:01:05;5.60;68.20
21622;DHT22;10973;46.706;12.340;2023-04-03T09:03:43;5.70;66.00
21622;DHT22;10973;46.706;12.340;2023-04-03T09:06:21;5.80;63.90
21622;DHT22;10973;46.706;12.340;2023-04-03T09:09:06;5.80;63.00
21622;DHT22;10973;46.706;12.340;2023-04-03T09:23:30;6.00;67.90
21622;DHT22;10973;46.706;12.340;2023-04-03T09:26:19;6.20;70.00
21622;DHT22;10973;46.706;12.340;2023-04-03T09:28:51;6.20;67.10
21622;DHT22;10973;46.706;12.340;2023-04-03T09:31:24;6.30;67.10
21622;DHT22;10973;46.706;12.340;2023-04-03T09:34:06;6.30;66.00
21622;DHT22;10973;46.706;12.340;2023-04-03T09:36:55;6.30;67.10
21622;DHT22;10973;46.706;12.340;2023-04-03T09:39:27;6.30;61.80
21622;DHT22;10973;46.706;12.340;2023-04-03T09:42:02;6.30;62.40
21622;DHT22;10973;46.706;12.340;2023-04-03T09:44:37;6.30;63.60
21622;DHT22;10973;46.706;12.340;2023-04-03T09:47:36;6.40;59.40
21622;DHT22;10973;46.706;12.340;2023-04-03T09:52:44;6.60;60.40
21622;DHT22;10973;46.706;12.340;2023-04-03T09:55:21;6.60;61.00
21622;DHT22;10973;46.706;12.340;2023-04-03T09:57:58;6.50;58.40
21622;DHT22;10973;46.706;12.340;2023-04-03T10:00:35;6.50;58.90
21622;DHT22;10973;46.706;12.340;2023-04-03T10:03:08;6.60;57.60
21622;DHT22;10973;46.706;12.340;2023-04-03T10:05:51;6.70;59.90
21622;DHT22;10973;46.706;12.340;2023-04-03T10:08:26;6.70;60.20
21622;DHT22;10973;46.706;12.340;2023-04-03T10:11:07;6.70;59.20
21622;DHT22;10973;46.706;12.340;2023-04-03T10:13:59;6.80;61.50
21622;DHT22;10973;46.706;12.340;2023-04-03T10:16:51;6.80;59.90
21622;DHT22;10973;46.706;12.340;2023-04-03T10:23:00;6.90;59.90
21622;DHT22;10973;46.706;12.340;2023-04-03T10:29:16;7.20;60.70
21622;DHT22;10973;46.706;12.340;2023-04-03T10:34:37;9.10;54.90
21622;DHT22;10973;46.706;12.340;2023-04-03T10:37:58;10.30;55.30
21622;DHT22;10973;46.706;12.340;2023-04-03T10:46:04;13.00;47.30
21622;DHT22;10973;46.706;12.340;2023-04-03T10:59:50;14.40;40.40
21622;DHT22;10973;46.706;12.340;2023-04-03T11:10:25;16.00;38.80
21622;DHT22;10973;46.706;12.340;2023-04-03T11:13:22;16.30;39.20
21622;DHT22;10973;46.706;12.340;2023-04-03T11:15:58;16.30;41.10
21622;DHT22;10973;46.706;12.340;2023-04-03T11:18:39;16.70;43.80
21622;DHT22;10973;46.706;12.340;2023-04-03T11:24:05;17.40;38.00
21622;DHT22;10973;46.706;12.340;2023-04-03T11:26:44;17.40;34.60
21622;DHT22;10973;46.706;12.340;2023-04-03T11:29:15;18.10;59.30
21622;DHT22;10973;46.706;12.340;2023-04-03T12:29:41;15.10;39.70
21622;DHT22;10973;46.706;12.340;2023-04-03T12:35:30;14.70;39.10
21622;DHT22;10973;46.706;12.340;2023-04-03T12:38:41;14.60;41.30
21622;DHT22;10973;46.706;12.340;2023-04-03T12:46:43;14.00;40.20
21622;DHT22;10973;46.706;12.340;2023-04-03T12:52:35;14.20;41.20
21622;DHT22;10973;46.706;12.340;2023-04-03T12:55:18;14.10;40.90
21622;DHT22;10973;46.706;12.340;2023-04-03T12:57:47;14.40;41.50
21622;DHT22;10973;46.706;12.340;2023-04-03T13:00:33;14.30;40.70
21622;DHT22;10973;46.706;12.340;2023-04-03T13:03:03;13.90;39.70
21622;DHT22;10973;46.706;12.340;2023-04-03T13:05:34;13.80;40.50
21622;DHT22;10973;46.706;12.340;2023-04-03T13:08:06;14.00;41.70
21622;DHT22;10973;46.706;12.340;2023-04-03T13:10:58;14.10;46.10
21622;DHT22;10973;46.706;12.340;2023-04-03T13:13:29;14.10;48.60
21622;DHT22;10973;46.706;12.340;2023-04-03T13:15:57;13.70;51.00
21622;DHT22;10973;46.706;12.340;2023-04-03T13:18:35;13.50;40.00
21622;DHT22;10973;46.706;12.340;2023-04-03T13:21:12;13.30;40.30
21622;DHT22;10973;46.706;12.340;2023-04-03T13:23:47;13.20;41.20
21622;DHT22;10973;46.706;12.340;2023-04-03T13:26:29;13.20;42.10
21622;DHT22;10973;46.706;12.340;2023-04-03T13:29:14;13.20;40.60
21622;DHT22;10973;46.706;12.340;2023-04-03T13:31:57;13.40;41.00
21622;DHT22;10973;46.706;12.340;2023-04-03T13:34:28;13.50;40.00
21622;DHT22;10973;46.706;12.340;2023-04-03T13:37:02;13.60;40.00
21622;DHT22;10973;46.706;12.340;2023-04-03T13:39:34;13.60;40.30
21622;DHT22;10973;46.706;12.340;2023-04-03T13:42:23;13.90;40.70
21622;DHT22;10973;46.706;12.340;2023-04-03T13:45:19;14.00;39.60
21622;DHT22;10973;46.706;12.340;2023-04-03T13:47:50;14.10;38.50
21622;DHT22;10973;46.706;12.340;2023-04-03T13:50:24;14.20;38.50
21622;DHT22;10973;46.706;12.340;2023-04-03T13:53:09;14.40;37.40
21622;DHT22;10973;46.706;12.340;2023-04-03T13:56:06;14.40;37.10
21622;DHT22;10973;46.706;12.340;2023-04-03T13:58:36;14.80;40.00
21622;DHT22;10973;46.706;12.340;2023-04-03T14:03:56;14.80;37.90
21622;DHT22;10973;46.706;12.340;2023-04-03T14:08:53;14.80;37.10
21622;DHT22;10973;46.706;12.340;2023-04-03T14:11:23;14.70;37.10
21622;DHT22;10973;46.706;12.340;2023-04-03T14:14:00;14.70;36.30
21622;DHT22;10973;46.706;12.340;2023-04-03T14:16:32;14.70;35.80
21622;DHT22;10973;46.706;12.340;2023-04-03T14:19:04;14.80;36.60
21622;DHT22;10973;46.706;12.340;2023-04-03T14:21:31;15.10;36.60
21622;DHT22;10973;46.706;12.340;2023-04-03T14:23:59;14.70;35.10
21622;DHT22;10973;46.706;12.340;2023-04-03T14:26:28;15.10;36.40
21622;DHT22;10973;46.706;12.340;2023-04-03T14:28:56;15.40;35.90
21622;DHT22;10973;46.706;12.340;2023-04-03T14:31:23;15.10;34.70
21622;DHT22;10973;46.706;12.340;2023-04-03T14:33:51;14.90;33.40
21622;DHT22;10973;46.706;12.340;2023-04-03T14:36:23;15.30;34.60
21622;DHT22;10973;46.706;12.340;2023-04-03T14:38:52;15.70;34.00
21622;DHT22;10973;46.706;12.340;2023-04-03T14:41:23;15.50;33.10
21622;DHT22;10973;46.706;12.340;2023-04-03T14:43:53;15.80;33.50
21622;DHT22;10973;46.706;12.340;2023-04-03T14:46:26;16.00;33.30
21622;DHT22;10973;46.706;12.340;2023-04-03T14:49:16;15.40;30.10
21622;DHT22;10973;46.706;12.340;2023-04-03T14:51:48;15.80;33.10
21622;DHT22;10973;46.706;12.340;2023-04-03T14:54:19;15.90;33.30
21622;DHT22;10973;46.706;12.340;2023-04-03T14:56:49;16.40;32.20
21622;DHT22;10973;46.706;12.340;2023-04-03T14:59:16;16.10;32.10
21622;DHT22;10973;46.706;12.340;2023-04-03T15:01:43;16.30;33.20
21622;DHT22;10973;46.706;12.340;2023-04-03T15:04:16;16.10;32.30
21622;DHT22;10973;46.706;12.340;2023-04-03T16:11:21;12.80;74.10
21622;DHT22;10973;46.706;12.340;2023-04-03T16:13:48;12.70;51.30
21622;DHT22;10973;46.706;12.340;2023-04-03T16:16:15;12.40;48.80
21622;DHT22;10973;46.706;12.340;2023-04-03T16:18:44;12.10;47.90
21622;DHT22;10973;46.706;12.340;2023-04-03T16:21:13;11.80;53.30
21622;DHT22;10973;46.706;12.340;2023-04-03T16:23:43;11.60;53.90
21622;DHT22;10973;46.706;12.340;2023-04-03T16:26:11;11.40;52.90
21622;DHT22;10973;46.706;12.340;2023-04-03T16:28:39;11.40;45.30
21622;DHT22;10973;46.706;12.340;2023-04-03T16:31:07;11.30;43.70
21622;DHT22;10973;46.706;12.340;2023-04-03T16:33:35;11.00;39.40
21622;DHT22;10973;46.706;12.340;2023-04-03T16:36:04;10.80;37.10
21622;DHT22;10973;46.706;12.340;2023-04-03T16:38:32;10.50;37.10
21622;DHT22;10973;46.706;12.340;2023-04-03T16:40:59;10.00;35.30
21622;DHT22;10973;46.706;12.340;2023-04-03T16:43:26;9.70;37.50
21622;DHT22;10973;46.706;12.340;2023-04-03T16:45:54;9.50;38.20
21622;DHT22;10973;46.706;12.340;2023-04-03T16:48:21;9.20;37.80
21622;DHT22;10973;46.706;12.340;2023-04-03T16:50:49;8.90;38.20
21622;DHT22;10973;46.706;12.340;2023-04-03T16:53:16;8.70;37.50
21622;DHT22;10973;46.706;12.340;2023-04-03T16:55:43;8.60;39.00
21622;DHT22;10973;46.706;12.340;2023-04-03T16:58:11;8.40;38.50
21622;DHT22;10973;46.706;12.340;2023-04-03T17:00:38;8.20;37.70
21622;DHT22;10973;46.706;12.340;2023-04-03T17:03:06;8.10;38.80
21622;DHT22;10973;46.706;12.340;2023-04-03T17:05:33;7.90;38.80
21622;DHT22;10973;46.706;12.340;2023-04-03T17:08:01;7.90;38.30
21622;DHT22;10973;46.706;12.340;2023-04-03T17:10:29;7.60;38.30
21622;DHT22;10973;46.706;12.340;2023-04-03T17:12:57;7.70;39.00
21622;DHT22;10973;46.706;12.340;2023-04-03T17:15:25;7.50;40.00
21622;DHT22;10973;46.706;12.340;2023-04-03T17:17:53;7.30;39.80
21622;DHT22;10973;46.706;12.340;2023-04-03T17:20:20;7.10;59.90
21622;DHT22;10973;46.706;12.340;2023-04-03T17:22:48;7.10;64.30
21622;DHT22;10973;46.706;12.340;2023-04-03T17:30:11;7.00;64.60
21622;DHT22;10973;46.706;12.340;2023-04-03T18:09:50;5.60;48.70
21622;DHT22;10973;46.706;12.340;2023-04-03T18:12:19;5.80;59.40
21622;DHT22;10973;46.706;12.340;2023-04-03T18:14:49;5.70;60.90
21622;DHT22;10973;46.706;12.340;2023-04-03T18:17:16;5.60;65.60
21622;DHT22;10973;46.706;12.340;2023-04-03T18:19:43;5.50;42.90
21622;DHT22;10973;46.706;12.340;2023-04-03T18:22:13;5.60;52.30
21622;DHT22;10973;46.706;12.340;2023-04-03T18:24:43;5.80;49.80
21622;DHT22;10973;46.706;12.340;2023-04-03T18:27:13;5.50;48.20
21622;DHT22;10973;46.706;12.340;2023-04-03T18:29:45;4.40;53.10
21622;DHT22;10973;46.706;12.340;2023-04-03T19:24:18;4.30;39.90
21622;DHT22;10973;46.706;12.340;2023-04-03T19:26:46;4.40;40.50
21622;DHT22;10973;46.706;12.340;2023-04-03T19:29:13;4.30;40.70
21622;DHT22;10973;46.706;12.340;2023-04-03T19:31:41;4.50;41.50
21622;DHT22;10973;46.706;12.340;2023-04-03T19:34:08;4.40;41.70
21622;DHT22;10973;46.706;12.340;2023-04-03T19:36:36;4.30;41.50
21622;DHT22;10973;46.706;12.340;2023-04-03T19:39:04;4.10;44.00
21622;DHT22;10973;46.706;12.340;2023-04-03T19:41:34;4.00;43.60
21622;DHT22;10973;46.706;12.340;2023-04-03T19:44:04;4.10;43.10
21622;DHT22;10973;46.706;12.340;2023-04-03T19:46:33;4.30;43.90
21622;DHT22;10973;46.706;12.340;2023-04-03T19:49:01;4.10;42.60
21622;DHT22;10973;46.706;12.340;2023-04-03T19:51:29;4.10;42.20
21622;DHT22;10973;46.706;12.340;2023-04-03T19:53:56;4.10;44.80
21622;DHT22;10973;46.706;12.340;2023-04-03T19:56:24;4.10;41.80
21622;DHT22;10973;46.706;12.340;2023-04-03T19:58:52;4.00;42.30
21622;DHT22;10973;46.706;12.340;2023-04-03T20:01:24;3.90;42.90
21622;DHT22;10973;46.706;12.340;2023-04-03T20:03:51;3.80;42.00
21622;DHT22;10973;46.706;12.340;2023-04-03T20:06:18;3.80;41.90
21622;DHT22;10973;46.706;12.340;2023-04-03T20:08:46;3.90;44.00
21622;DHT22;10973;46.706;12.340;2023-04-03T20:11:13;3.80;43.00
21622;DHT22;10973;46.706;12.340;2023-04-03T20:13:40;3.60;42.70
21622;DHT22;10973;46.706;12.340;2023-04-03T20:16:08;3.60;41.80
21622;DHT22;10973;46.706;12.340;2023-04-03T20:21:04;3.60;41.50
21622;DHT22;10973;46.706;12.340;2023-04-03T20:23:33;3.60;42.30
21622;DHT22;10973;46.706;12.340;2023-04-03T20:26:01;3.70;42.30
21622;DHT22;10973;46.706;12.340;2023-04-03T20:28:41;3.50;43.70
21622;DHT22;10973;46.706;12.340;2023-04-03T20:31:09;3.50;44.00
21622;DHT22;10973;46.706;12.340;2023-04-03T20:33:36;3.50;44.10
21622;DHT22;10973;46.706;12.340;2023-04-03T20:36:03;3.60;43.20
21622;DHT22;10973;46.706;12.340;2023-04-03T20:38:30;3.60;43.60
21622;DHT22;10973;46.706;12.340;2023-04-03T20:40:58;3.40;44.80
21622;DHT22;10973;46.706;12.340;2023-04-03T20:45:53;3.10;44.70
21622;DHT22;10973;46.706;12.340;2023-04-03T20:48:20;3.30;46.10
21622;DHT22;10973;46.706;12.340;2023-04-03T20:50:47;3.30;44.90
21622;DHT22;10973;46.706;12.340;2023-04-03T20:53:14;3.20;44.10
21622;DHT22;10973;46.706;12.340;2023-04-03T20:55:42;3.20;44.30